createdAt,value
2019-05-26T00:01:27.145Z,14.80
2019-05-26T00:03:56.468Z,14.80
2019-05-26T00:06:25.711Z,14.80
2019-05-26T00:08:54.967Z,14.70
2019-05-26T00:11:24.315Z,14.60
2019-05-26T00:13:53.615Z,14.50
2019-05-26T00:16:22.882Z,14.50
2019-05-26T00:18:52.122Z,14.50
2019-05-26T00:21:21.387Z,14.60
2019-05-26T00:23:50.630Z,14.60
2019-05-26T00:26:19.931Z,14.60
2019-05-26T00:29:08.553Z,14.60
2019-05-26T00:31:37.884Z,14.50
2019-05-26T00:34:07.150Z,14.50
2019-05-26T00:36:36.416Z,14.60
2019-05-26T00:39:13.186Z,14.60
2019-05-26T00:41:42.435Z,14.60
2019-05-26T00:44:12.031Z,14.60
2019-05-26T00:46:41.421Z,14.60
2019-05-26T00:49:10.790Z,14.70
2019-05-26T00:51:40.185Z,14.60
2019-05-26T00:54:09.502Z,14.50
2019-05-26T00:56:38.762Z,14.40
2019-05-26T00:59:08.172Z,14.40
2019-05-26T01:01:37.470Z,14.50
2019-05-26T01:04:06.786Z,14.40
2019-05-26T01:06:36.025Z,14.40
2019-05-26T01:09:07.804Z,14.40
2019-05-26T01:11:37.074Z,14.50
2019-05-26T01:14:06.492Z,14.50
2019-05-26T01:16:35.794Z,14.50
2019-05-26T01:19:05.124Z,14.40
2019-05-26T01:21:34.507Z,14.40
2019-05-26T01:24:03.900Z,14.40
2019-05-26T01:26:33.235Z,14.40
2019-05-26T01:29:03.063Z,14.40
2019-05-26T01:31:41.333Z,14.30
2019-05-26T01:34:10.587Z,14.40
2019-05-26T01:36:40.018Z,14.30
2019-05-26T01:39:09.358Z,14.20
2019-05-26T01:41:38.595Z,14.20
2019-05-26T01:44:07.882Z,14.10
2019-05-26T01:46:37.132Z,14.10
2019-05-26T01:49:06.388Z,14.10
2019-05-26T01:51:35.650Z,14.10
2019-05-26T01:54:42.363Z,14.20
2019-05-26T01:57:11.673Z,14.20
2019-05-26T02:00:00.282Z,14.20
2019-05-26T02:02:29.526Z,14.10
2019-05-26T02:04:58.795Z,14.10
2019-05-26T02:07:28.042Z,14.20
2019-05-26T02:09:57.323Z,14.10
2019-05-26T02:12:26.564Z,14.10
2019-05-26T02:14:55.815Z,14.10
2019-05-26T02:17:25.129Z,14.10
2019-05-26T02:19:54.522Z,14.10
2019-05-26T02:22:23.787Z,14.00
2019-05-26T02:24:53.074Z,13.90
2019-05-26T02:27:23.817Z,13.90
2019-05-26T02:29:53.208Z,13.90
2019-05-26T02:32:22.505Z,14.00
2019-05-26T02:34:51.734Z,14.00
2019-05-26T02:37:21.000Z,14.00
2019-05-26T02:39:50.235Z,14.00
2019-05-26T02:42:39.003Z,14.00
2019-05-26T02:45:10.763Z,14.10
2019-05-26T02:47:59.567Z,14.00
2019-05-26T02:50:28.947Z,14.00
2019-05-26T02:52:58.286Z,14.00
2019-05-26T02:55:46.983Z,14.00
2019-05-26T02:58:16.324Z,14.00
2019-05-26T03:00:46.946Z,14.00
2019-05-26T03:03:16.807Z,14.00
2019-05-26T03:05:46.785Z,14.00
2019-05-26T03:08:16.777Z,14.10
2019-05-26T03:10:46.567Z,14.00
2019-05-26T03:13:17.550Z,14.00
2019-05-26T03:15:48.631Z,13.90
2019-05-26T03:18:18.073Z,13.90
2019-05-26T03:21:06.665Z,13.90
2019-05-26T03:23:35.939Z,14.00
2019-05-26T03:26:05.250Z,13.90
2019-05-26T03:28:34.549Z,13.80
2019-05-26T03:31:03.947Z,13.80
2019-05-26T03:33:33.376Z,14.00
2019-05-26T03:36:33.698Z,14.00
2019-05-26T03:39:04.610Z,14.00
2019-05-26T03:41:33.927Z,14.00
2019-05-26T03:44:03.184Z,13.90
2019-05-26T03:46:32.462Z,13.90
2019-05-26T03:49:01.696Z,14.00
2019-05-26T03:51:30.971Z,14.10
2019-05-26T03:54:00.293Z,14.10
2019-05-26T03:56:29.682Z,14.10
2019-05-26T03:58:59.053Z,14.10
2019-05-26T04:01:28.636Z,14.10
2019-05-26T04:03:57.902Z,14.10
2019-05-26T04:06:27.152Z,14.10
2019-05-26T04:08:56.428Z,14.10
2019-05-26T04:11:25.737Z,14.10
2019-05-26T04:13:55.157Z,14.20
2019-05-26T04:16:24.508Z,14.30
2019-05-26T04:18:53.765Z,14.30
2019-05-26T04:21:23.095Z,14.30
2019-05-26T04:23:52.351Z,14.40
2019-05-26T04:26:21.601Z,14.50
2019-05-26T04:28:50.914Z,14.60
2019-05-26T04:31:20.218Z,14.60
2019-05-26T04:33:49.478Z,14.70
2019-05-26T04:36:18.717Z,14.70
2019-05-26T04:38:47.965Z,14.80
2019-05-26T04:41:17.217Z,14.70
2019-05-26T04:43:46.593Z,14.60
2019-05-26T04:46:15.844Z,14.60
2019-05-26T04:48:45.104Z,14.50
2019-05-26T04:51:14.328Z,14.40
2019-05-26T04:53:43.582Z,14.50
2019-05-26T04:56:12.838Z,14.40
2019-05-26T04:58:42.098Z,14.60
2019-05-26T05:01:11.364Z,14.70
2019-05-26T05:03:40.667Z,14.80
2019-05-26T05:06:10.060Z,14.70
2019-05-26T05:08:39.319Z,14.70
2019-05-26T05:11:08.676Z,14.70
2019-05-26T05:13:37.921Z,14.80
2019-05-26T05:16:07.428Z,14.80
2019-05-26T05:18:36.701Z,14.80
2019-05-26T05:21:08.543Z,14.90
2019-05-26T05:23:37.798Z,14.90
2019-05-26T05:26:11.206Z,15.00
2019-05-26T05:28:45.023Z,15.00
2019-05-26T05:31:15.839Z,14.90
2019-05-26T05:33:45.082Z,15.00
2019-05-26T05:36:17.038Z,15.00
2019-05-26T05:38:46.173Z,15.00
2019-05-26T05:41:15.548Z,15.20
2019-05-26T05:43:44.827Z,15.20
2019-05-26T05:46:15.635Z,15.30
2019-05-26T05:48:45.085Z,15.30
2019-05-26T05:51:16.096Z,15.30
2019-05-26T05:53:47.114Z,15.30
2019-05-26T05:56:16.534Z,15.40
2019-05-26T05:58:48.126Z,15.50
2019-05-26T06:01:17.585Z,15.50
2019-05-26T06:03:49.940Z,15.70
2019-05-26T06:06:19.066Z,15.70
2019-05-26T06:08:48.367Z,15.80
2019-05-26T06:14:48.659Z,16.00
2019-05-26T06:17:17.927Z,16.00
2019-05-26T06:19:47.280Z,16.20
2019-05-26T06:22:17.348Z,16.20
2019-05-26T06:24:47.838Z,16.20
2019-05-26T06:27:17.688Z,16.30
2019-05-26T06:29:58.457Z,16.50
2019-05-26T06:32:20.063Z,16.60
2019-05-26T06:34:49.381Z,16.70
2019-05-26T06:37:18.716Z,16.80
2019-05-26T06:39:47.968Z,16.70
2019-05-26T06:42:36.577Z,16.80
2019-05-26T06:45:07.732Z,17.00
2019-05-26T06:47:37.007Z,17.00
2019-05-26T06:50:06.812Z,17.10
2019-05-26T06:52:36.068Z,17.20
2019-05-26T06:55:06.584Z,17.20
2019-05-26T06:57:35.844Z,17.20
2019-05-26T07:00:06.426Z,17.30
2019-05-26T07:02:35.740Z,17.40
2019-05-26T07:05:06.915Z,17.40
2019-05-26T07:07:36.281Z,17.60
2019-05-26T07:10:06.607Z,17.50
2019-05-26T07:12:36.121Z,17.60
2019-05-26T07:15:07.687Z,17.70
2019-05-26T07:17:37.011Z,17.70
2019-05-26T07:20:07.135Z,17.60
2019-05-26T07:22:36.479Z,17.50
2019-05-26T07:25:07.736Z,17.40
2019-05-26T07:27:37.132Z,17.50
2019-05-26T07:30:07.518Z,17.50
2019-05-26T07:32:36.753Z,17.50
2019-05-26T07:35:07.363Z,17.60
2019-05-26T07:37:36.661Z,17.60
2019-05-26T07:40:06.460Z,17.70
2019-05-26T07:42:35.900Z,17.80
2019-05-26T07:45:08.562Z,17.90
2019-05-26T07:47:37.872Z,17.70
2019-05-26T07:50:08.695Z,17.70
2019-05-26T07:52:38.083Z,17.80
2019-05-26T07:55:07.681Z,17.80
2019-05-26T07:57:37.010Z,17.90
2019-05-26T08:00:07.246Z,17.80
2019-05-26T08:02:36.589Z,17.80
2019-05-26T08:05:07.563Z,17.80
2019-05-26T08:07:36.900Z,17.80
2019-05-26T08:10:08.257Z,18.00
2019-05-26T08:12:38.485Z,18.10
2019-05-26T08:15:08.250Z,18.20
2019-05-26T08:17:37.590Z,18.30
2019-05-26T08:20:07.458Z,18.50
2019-05-26T08:22:36.831Z,18.60
2019-05-26T08:25:25.467Z,18.80
2019-05-26T08:27:54.742Z,19.00
2019-05-26T08:30:24.044Z,19.30
2019-05-26T08:32:53.336Z,19.60
2019-05-26T08:35:22.710Z,19.80
2019-05-26T08:37:51.989Z,20.00
2019-05-26T08:40:21.414Z,20.20
2019-05-26T08:42:51.768Z,20.50
2019-05-26T08:45:23.359Z,20.50
2019-05-26T08:47:54.041Z,20.60
2019-05-26T08:50:23.662Z,20.90
2019-05-26T08:52:53.028Z,21.00
2019-05-26T08:55:22.591Z,21.10
2019-05-26T08:57:51.960Z,21.20
2019-05-26T09:00:40.532Z,21.30
2019-05-26T09:03:09.871Z,21.60
2019-05-26T09:05:39.186Z,21.90
2019-05-26T09:08:08.540Z,22.10
2019-05-26T09:10:37.886Z,22.10
2019-05-26T09:13:07.146Z,21.80
2019-05-26T09:15:36.437Z,21.10
2019-05-26T09:18:05.825Z,20.80
2019-05-26T09:20:35.068Z,20.80
2019-05-26T09:23:04.492Z,20.80
2019-05-26T09:25:33.794Z,20.70
2019-05-26T09:28:03.170Z,20.80
2019-05-26T09:30:32.472Z,20.90
2019-05-26T09:33:01.823Z,20.90
2019-05-26T09:35:31.099Z,20.80
2019-05-26T09:38:00.425Z,21.00
2019-05-26T09:40:29.770Z,21.00
2019-05-26T09:42:59.050Z,20.90
2019-05-26T09:45:28.359Z,20.90
2019-05-26T09:47:57.610Z,20.80
2019-05-26T09:50:26.876Z,20.90
2019-05-26T09:52:56.229Z,20.80
2019-05-26T09:55:25.536Z,20.80
2019-05-26T09:57:54.794Z,20.70
2019-05-26T10:00:24.995Z,20.40
2019-05-26T10:02:54.298Z,20.30
2019-05-26T10:05:42.920Z,20.50
2019-05-26T10:08:12.231Z,20.70
2019-05-26T10:10:41.595Z,20.90
2019-05-26T10:13:10.939Z,20.60
2019-05-26T10:15:40.163Z,20.30
2019-05-26T10:18:09.422Z,20.40
2019-05-26T10:20:38.694Z,20.50
2019-05-26T10:23:08.073Z,20.40
2019-05-26T10:25:37.354Z,20.40
2019-05-26T10:28:06.619Z,20.40
2019-05-26T10:30:35.996Z,20.30
2019-05-26T10:33:05.622Z,20.50
2019-05-26T10:35:54.330Z,20.80
2019-05-26T10:38:23.950Z,20.70
2019-05-26T10:40:53.400Z,20.60
2019-05-26T10:43:22.675Z,20.60
2019-05-26T10:45:53.086Z,20.40
2019-05-26T10:48:22.531Z,20.50
2019-05-26T10:50:51.891Z,20.50
2019-05-26T10:53:21.272Z,20.60
2019-05-26T10:55:50.602Z,20.60
2019-05-26T10:58:19.868Z,20.50
2019-05-26T11:00:49.198Z,20.70
2019-05-26T11:03:18.470Z,20.70
2019-05-26T11:05:47.893Z,20.80
2019-05-26T11:08:19.285Z,20.70
2019-05-26T11:10:50.823Z,20.80
2019-05-26T11:13:21.759Z,20.80
2019-05-26T11:16:10.440Z,20.80
2019-05-26T11:18:39.705Z,20.80
2019-05-26T11:21:11.770Z,20.70
2019-05-26T11:23:39.970Z,20.60
2019-05-26T11:26:09.219Z,20.70
2019-05-26T11:28:38.502Z,20.90
2019-05-26T11:31:07.939Z,21.00
2019-05-26T11:33:37.253Z,21.10
2019-05-26T11:36:06.594Z,21.00
2019-05-26T11:38:35.916Z,20.90
2019-05-26T11:41:05.266Z,21.00
2019-05-26T11:43:53.853Z,21.30
2019-05-26T11:46:23.214Z,21.60
2019-05-26T11:48:52.517Z,21.50
2019-05-26T11:51:21.756Z,21.60
2019-05-26T11:53:51.016Z,22.00
2019-05-26T11:56:20.382Z,22.10
2019-05-26T11:58:49.729Z,22.10
2019-05-26T12:01:22.629Z,21.90
2019-05-26T12:03:50.060Z,21.80
2019-05-26T12:06:19.358Z,21.70
2019-05-26T12:08:48.839Z,21.80
2019-05-26T12:11:18.160Z,21.90
2019-05-26T12:13:47.429Z,22.10
2019-05-26T12:16:16.833Z,22.10
2019-05-26T12:18:46.178Z,22.20
2019-05-26T12:21:15.440Z,22.20
2019-05-26T12:23:44.862Z,22.10
2019-05-26T12:26:14.420Z,22.40
2019-05-26T12:28:43.691Z,22.50
2019-05-26T12:31:13.105Z,22.60
2019-05-26T12:33:43.257Z,22.80
2019-05-26T12:36:12.595Z,23.00
2019-05-26T12:38:50.745Z,23.30
2019-05-26T12:41:21.225Z,23.40
2019-05-26T12:43:52.064Z,23.30
2019-05-26T12:46:21.436Z,23.20
2019-05-26T12:48:50.763Z,23.00
2019-05-26T12:51:28.089Z,22.80
2019-05-26T12:54:12.677Z,22.90
2019-05-26T12:56:42.009Z,22.80
2019-05-26T12:59:11.487Z,23.10
2019-05-26T13:01:40.859Z,23.20
2019-05-26T13:04:10.103Z,23.20
2019-05-26T13:06:42.199Z,23.00
2019-05-26T13:09:14.775Z,22.80
2019-05-26T13:12:03.400Z,22.60
2019-05-26T13:14:32.675Z,22.60
2019-05-26T13:17:02.144Z,22.80
2019-05-26T13:19:31.427Z,23.00
2019-05-26T13:22:00.666Z,23.00
2019-05-26T13:24:30.017Z,23.00
2019-05-26T13:26:59.246Z,23.00
2019-05-26T13:29:28.503Z,23.10
2019-05-26T13:31:57.743Z,23.10
2019-05-26T13:34:26.991Z,23.20
2019-05-26T13:36:56.249Z,23.10
2019-05-26T13:39:25.582Z,22.90
2019-05-26T13:41:54.883Z,23.00
2019-05-26T13:44:24.312Z,22.80
2019-05-26T13:46:53.604Z,22.70
2019-05-26T13:49:22.962Z,22.40
2019-05-26T13:51:52.245Z,22.40
2019-05-26T13:54:21.679Z,22.40
2019-05-26T13:56:51.113Z,22.30
2019-05-26T13:59:20.347Z,22.40
2019-05-26T14:01:49.647Z,22.50
2019-05-26T14:04:18.991Z,22.60
2019-05-26T14:06:48.243Z,22.50
2019-05-26T14:09:17.513Z,22.80
2019-05-26T14:11:46.886Z,23.00
2019-05-26T14:14:16.746Z,22.80
2019-05-26T14:16:47.084Z,22.70
2019-05-26T14:19:16.675Z,22.60
2019-05-26T14:21:45.923Z,22.80
2019-05-26T14:24:15.251Z,22.80
2019-05-26T14:26:44.544Z,22.80
2019-05-26T14:29:14.065Z,22.70
2019-05-26T14:31:43.392Z,22.70
2019-05-26T14:34:12.654Z,22.70
2019-05-26T14:37:01.303Z,22.70
2019-05-26T14:39:30.547Z,22.80
2019-05-26T14:41:59.869Z,22.90
2019-05-26T14:44:29.111Z,22.70
2019-05-26T14:46:58.343Z,22.80
2019-05-26T14:49:27.722Z,22.80
2019-05-26T14:51:56.970Z,22.80
2019-05-26T14:54:26.604Z,22.70
2019-05-26T14:56:55.827Z,22.70
2019-05-26T14:59:25.112Z,22.80
2019-05-26T15:01:54.380Z,22.90
2019-05-26T15:04:23.854Z,22.80
2019-05-26T15:06:53.232Z,22.80
2019-05-26T15:09:25.473Z,22.60
2019-05-26T15:11:53.460Z,22.50
2019-05-26T15:14:22.809Z,22.50
2019-05-26T15:16:52.103Z,22.40
2019-05-26T15:19:21.469Z,22.50
2019-05-26T15:21:50.745Z,22.30
2019-05-26T15:24:20.089Z,22.20
2019-05-26T15:26:49.413Z,22.10
2019-05-26T15:29:18.789Z,22.10
2019-05-26T15:31:48.118Z,22.10
2019-05-26T15:34:36.748Z,22.10
2019-05-26T15:37:06.010Z,22.00
2019-05-26T15:39:35.319Z,22.10
2019-05-26T15:42:07.649Z,22.10
2019-05-26T15:44:35.850Z,22.10
2019-05-26T15:47:05.178Z,22.00
2019-05-26T15:49:55.511Z,22.00
2019-05-26T15:52:24.783Z,21.90
2019-05-26T15:54:54.122Z,21.90
2019-05-26T15:57:23.357Z,21.90
2019-05-26T15:59:54.576Z,22.00
2019-05-26T16:02:23.678Z,22.00
2019-05-26T16:04:52.950Z,21.80
2019-05-26T16:07:22.287Z,21.70
2019-05-26T16:09:51.561Z,21.80
2019-05-26T16:12:40.164Z,21.80
2019-05-26T16:15:10.064Z,21.60
2019-05-26T16:17:39.486Z,21.60
2019-05-26T16:20:09.542Z,21.70
2019-05-26T16:22:38.943Z,21.80
2019-05-26T16:25:08.818Z,21.90
2019-05-26T16:27:38.143Z,21.90
2019-05-26T16:30:08.349Z,21.80
2019-05-26T16:32:37.708Z,21.70
2019-05-26T16:35:07.624Z,21.70
2019-05-26T16:37:36.939Z,21.80
2019-05-26T16:40:07.909Z,21.80
2019-05-26T16:42:37.288Z,21.60
2019-05-26T16:45:07.926Z,21.50
2019-05-26T16:47:37.361Z,21.60
2019-05-26T16:50:07.747Z,21.60
2019-05-26T16:52:37.031Z,21.80
2019-05-26T16:55:07.594Z,21.80
2019-05-26T16:57:36.975Z,21.70
2019-05-26T17:00:10.247Z,21.60
2019-05-26T17:02:39.651Z,21.40
2019-05-26T17:05:08.963Z,21.40
2019-05-26T17:07:38.351Z,21.30
2019-05-26T17:10:08.138Z,21.30
2019-05-26T17:12:37.552Z,21.40
2019-05-26T17:15:07.776Z,21.40
2019-05-26T17:17:42.717Z,21.40
2019-05-26T17:20:12.601Z,21.30
2019-05-26T17:22:41.902Z,21.30
2019-05-26T17:25:11.695Z,21.30
2019-05-26T17:27:40.978Z,21.40
2019-05-26T17:30:10.897Z,21.30
2019-05-26T17:32:40.220Z,21.20
2019-05-26T17:35:09.631Z,21.20
2019-05-26T17:37:38.912Z,21.10
2019-05-26T17:40:08.453Z,21.10
2019-05-26T17:42:57.119Z,21.00
2019-05-26T17:45:26.624Z,20.90
2019-05-26T17:47:55.871Z,20.90
2019-05-26T17:50:25.250Z,20.90
2019-05-26T17:52:54.604Z,20.90
2019-05-26T17:55:23.911Z,20.90
2019-05-26T17:57:54.822Z,20.80
2019-05-26T18:00:24.164Z,20.80
2019-05-26T18:03:12.851Z,20.80
2019-05-26T18:05:42.277Z,20.90
2019-05-26T18:08:11.557Z,20.90
2019-05-26T18:10:40.823Z,20.80
2019-05-26T18:13:10.095Z,20.80
2019-05-26T18:15:39.506Z,20.90
2019-05-26T18:18:09.439Z,21.00
2019-05-26T18:20:38.673Z,20.90
2019-05-26T18:23:27.290Z,21.00
2019-05-26T18:25:57.114Z,21.00
2019-05-26T18:28:26.363Z,21.00
2019-05-26T18:31:14.985Z,21.00
2019-05-26T18:33:44.291Z,21.10
2019-05-26T18:36:13.616Z,21.10
2019-05-26T18:38:43.029Z,21.10
2019-05-26T18:41:12.453Z,21.00
2019-05-26T18:43:41.725Z,21.00
2019-05-26T18:46:11.002Z,20.90
2019-05-26T18:48:40.361Z,20.80
2019-05-26T18:51:09.763Z,20.80
2019-05-26T18:53:39.122Z,20.90
2019-05-26T18:56:08.421Z,20.90
2019-05-26T18:58:37.705Z,20.70
2019-05-26T19:01:08.568Z,20.80
2019-05-26T19:03:38.011Z,20.80
2019-05-26T19:06:07.303Z,20.80
2019-05-26T19:08:36.657Z,20.80
2019-05-26T19:11:05.923Z,20.50
2019-05-26T19:13:35.464Z,20.50
2019-05-26T19:16:05.017Z,20.60
2019-05-26T19:18:34.356Z,20.70
2019-05-26T19:21:03.967Z,20.70
2019-05-26T19:23:33.269Z,20.80
2019-05-26T19:26:02.507Z,20.80
2019-05-26T19:28:31.883Z,20.60
2019-05-26T19:31:01.191Z,20.60
2019-05-26T19:33:30.569Z,20.60
2019-05-26T19:35:59.904Z,20.60
2019-05-26T19:38:29.302Z,20.60
2019-05-26T19:40:58.713Z,20.50
2019-05-26T19:43:28.107Z,20.50
2019-05-26T19:45:57.444Z,20.60
2019-05-26T19:48:35.530Z,20.50
2019-05-26T19:50:57.892Z,20.30
2019-05-26T19:53:27.291Z,20.20
2019-05-26T19:55:56.563Z,20.30
2019-05-26T19:58:28.528Z,20.30
2019-05-26T20:00:56.918Z,20.40
2019-05-26T20:03:26.153Z,20.40
2019-05-26T20:05:55.506Z,20.40
2019-05-26T20:08:44.170Z,20.30
2019-05-26T20:11:13.495Z,20.10
2019-05-26T20:13:42.801Z,20.00
2019-05-26T20:16:12.208Z,19.80
2019-05-26T20:19:00.836Z,19.80
2019-05-26T20:21:30.165Z,19.70
2019-05-26T20:23:59.415Z,19.70
2019-05-26T20:26:28.695Z,19.70
2019-05-26T20:28:58.002Z,19.70
2019-05-26T20:31:27.285Z,19.70
2019-05-26T20:33:56.602Z,19.60
2019-05-26T20:36:25.874Z,19.60
2019-05-26T20:38:55.191Z,19.60
2019-05-26T20:41:24.456Z,19.50
2019-05-26T20:43:53.787Z,19.40
2019-05-26T20:46:42.360Z,19.30
2019-05-26T20:49:11.784Z,19.30
2019-05-26T20:51:41.086Z,19.20
2019-05-26T20:54:10.431Z,19.20
2019-05-26T20:56:39.753Z,19.10
2019-05-26T20:59:09.165Z,19.10
2019-05-26T21:01:44.455Z,19.10
2019-05-26T21:04:13.704Z,19.20
2019-05-26T21:06:43.072Z,19.30
2019-05-26T21:09:12.407Z,19.20
2019-05-26T21:11:41.820Z,19.10
2019-05-26T21:14:11.144Z,19.00
2019-05-26T21:16:41.743Z,19.00
2019-05-26T21:19:11.092Z,19.00
2019-05-26T21:21:40.386Z,18.90
2019-05-26T21:24:09.713Z,19.00
2019-05-26T21:26:38.999Z,19.00
2019-05-26T21:29:08.253Z,19.00
2019-05-26T21:31:37.559Z,19.00
2019-05-26T21:34:06.887Z,19.00
2019-05-26T21:36:36.138Z,19.00
2019-05-26T21:39:07.871Z,19.00
2019-05-26T21:41:37.206Z,19.00
2019-05-26T21:44:06.609Z,18.90
2019-05-26T21:46:35.939Z,18.90
2019-05-26T21:49:05.304Z,18.90
2019-05-26T21:51:34.850Z,18.90
2019-05-26T21:54:04.344Z,18.90
2019-05-26T21:56:33.673Z,18.80
2019-05-26T21:59:03.007Z,18.70
2019-05-26T22:01:32.633Z,18.70
2019-05-26T22:04:01.884Z,18.80
2019-05-26T22:06:31.178Z,18.80
2019-05-26T22:09:00.582Z,18.90
2019-05-26T22:11:29.812Z,18.90
2019-05-26T22:13:59.076Z,18.70
2019-05-26T22:16:47.644Z,18.80
2019-05-26T22:19:16.910Z,18.60
2019-05-26T22:21:46.168Z,18.50
2019-05-26T22:24:15.513Z,18.50
2019-05-26T22:26:46.352Z,18.40
2019-05-26T22:29:15.722Z,18.40
2019-05-26T22:31:45.034Z,18.30
2019-05-26T22:34:18.198Z,18.30
2019-05-26T22:36:47.495Z,18.20
2019-05-26T22:39:16.769Z,18.10
2019-05-26T22:41:46.004Z,18.00
2019-05-26T22:44:15.343Z,18.00
2019-05-26T22:46:44.586Z,18.00
2019-05-26T22:49:13.839Z,18.00
2019-05-26T22:51:43.095Z,18.00
2019-05-26T22:54:31.753Z,18.10
2019-05-26T22:57:01.106Z,18.00
2019-05-26T22:59:30.608Z,17.90
2019-05-26T23:01:59.897Z,17.90
2019-05-26T23:04:29.130Z,17.90
2019-05-26T23:06:59.647Z,17.80
2019-05-26T23:09:28.904Z,17.70
2019-05-26T23:11:58.151Z,17.70
2019-05-26T23:14:27.467Z,17.60
2019-05-26T23:17:16.147Z,17.70
2019-05-26T23:19:45.395Z,17.70
2019-05-26T23:22:33.982Z,17.60
2019-05-26T23:25:03.864Z,17.70
2019-05-26T23:27:33.167Z,17.70
2019-05-26T23:30:03.051Z,17.70
2019-05-26T23:32:33.843Z,17.60
2019-05-26T23:35:03.962Z,17.50
2019-05-26T23:37:33.364Z,17.50
2019-05-26T23:40:02.616Z,17.50
2019-05-26T23:42:31.846Z,17.50
2019-05-26T23:45:01.111Z,17.50
2019-05-26T23:47:30.365Z,17.50
2019-05-26T23:49:59.695Z,17.50
2019-05-26T23:52:28.952Z,17.50
2019-05-26T23:54:58.215Z,17.30
2019-05-26T23:57:27.452Z,17.30
2019-05-26T23:59:56.759Z,17.30
